sensor_id;sensor_type;location;lat;lon;timestamp;pressure;altitude;pressure_sealevel;temperature;humidity
10806;BME280;5455;53.224;6.000;2023-04-06T00:01:11;101900.56;;;3.38;93.98
10806;BME280;5455;53.224;6.000;2023-04-06T00:03:38;101891.63;;;3.32;94.21
10806;BME280;5455;53.224;6.000;2023-04-06T00:06:06;101891.31;;;3.33;94.60
10806;BME280;5455;53.224;6.000;2023-04-06T00:08:36;101886.41;;;3.36;93.63
10806;BME280;5455;53.224;6.000;2023-04-06T00:11:03;101891.88;;;3.36;93.48
10806;BME280;5455;53.224;6.000;2023-04-06T00:13:30;101887.22;;;3.36;92.99
10806;BME280;5455;53.224;6.000;2023-04-06T00:15:57;101880.97;;;3.30;93.05
10806;BME280;5455;53.224;6.000;2023-04-06T00:18:25;101881.56;;;3.27;93.14
10806;BME280;5455;53.224;6.000;2023-04-06T00:20:52;101878.03;;;3.27;93.56
10806;BME280;5455;53.224;6.000;2023-04-06T00:23:19;101876.97;;;3.23;93.97
10806;BME280;5455;53.224;6.000;2023-04-06T00:25:47;101873.47;;;3.17;94.27
10806;BME280;5455;53.224;6.000;2023-04-06T00:28:14;101873.75;;;3.16;94.57
10806;BME280;5455;53.224;6.000;2023-04-06T00:30:41;101865.06;;;3.14;94.68
10806;BME280;5455;53.224;6.000;2023-04-06T00:33:08;101868.06;;;3.12;94.38
10806;BME280;5455;53.224;6.000;2023-04-06T00:35:35;101862.63;;;3.12;93.94
10806;BME280;5455;53.224;6.000;2023-04-06T00:38:02;101858.84;;;3.08;93.97
10806;BME280;5455;53.224;6.000;2023-04-06T00:40:29;101861.81;;;3.07;94.67
10806;BME280;5455;53.224;6.000;2023-04-06T00:42:57;101850.72;;;3.03;94.42
10806;BME280;5455;53.224;6.000;2023-04-06T00:45:24;101843.63;;;3.02;94.85
10806;BME280;5455;53.224;6.000;2023-04-06T00:47:55;101841.50;;;2.94;95.10
10806;BME280;5455;53.224;6.000;2023-04-06T00:50:23;101841.47;;;2.99;94.82
10806;BME280;5455;53.224;6.000;2023-04-06T00:52:50;101827.84;;;2.99;94.82
10806;BME280;5455;53.224;6.000;2023-04-06T00:55:22;101838.75;;;2.99;94.53
10806;BME280;5455;53.224;6.000;2023-04-06T00:57:50;101827.91;;;2.94;94.79
10806;BME280;5455;53.224;6.000;2023-04-06T01:00:18;101830.63;;;2.94;94.62
10806;BME280;5455;53.224;6.000;2023-04-06T01:02:46;101824.91;;;2.91;94.97
10806;BME280;5455;53.224;6.000;2023-04-06T01:05:19;101822.47;;;2.89;95.04
10806;BME280;5455;53.224;6.000;2023-04-06T01:07:50;101816.50;;;2.87;95.19
10806;BME280;5455;53.224;6.000;2023-04-06T01:10:28;101823.03;;;2.86;95.25
10806;BME280;5455;53.224;6.000;2023-04-06T01:13:06;101808.06;;;2.84;95.45
10806;BME280;5455;53.224;6.000;2023-04-06T01:16:02;101804.28;;;2.79;95.65
10806;BME280;5455;53.224;6.000;2023-04-06T01:18:44;101803.50;;;2.79;96.06
10806;BME280;5455;53.224;6.000;2023-04-06T01:21:15;101798.06;;;2.74;96.15
10806;BME280;5455;53.224;6.000;2023-04-06T01:24:04;101799.19;;;2.73;95.75
10806;BME280;5455;53.224;6.000;2023-04-06T01:26:43;101795.09;;;2.70;96.42
10806;BME280;5455;53.224;6.000;2023-04-06T01:29:11;101792.66;;;2.69;95.88
10806;BME280;5455;53.224;6.000;2023-04-06T01:31:39;101795.91;;;2.71;96.49
10806;BME280;5455;53.224;6.000;2023-04-06T01:34:07;101793.47;;;2.69;96.47
10806;BME280;5455;53.224;6.000;2023-04-06T01:36:34;101789.94;;;2.69;96.52
10806;BME280;5455;53.224;6.000;2023-04-06T01:39:16;101789.94;;;2.69;96.18
10806;BME280;5455;53.224;6.000;2023-04-06T01:41:43;101787.50;;;2.67;96.47
10806;BME280;5455;53.224;6.000;2023-04-06T01:44:10;101776.84;;;2.71;95.83
10806;BME280;5455;53.224;6.000;2023-04-06T01:46:38;101777.72;;;2.66;95.59
10806;BME280;5455;53.224;6.000;2023-04-06T01:49:07;101779.63;;;2.66;95.62
10806;BME280;5455;53.224;6.000;2023-04-06T01:51:36;101784.25;;;2.65;96.04
10806;BME280;5455;53.224;6.000;2023-04-06T01:54:07;101780.19;;;2.63;96.49
10806;BME280;5455;53.224;6.000;2023-04-06T01:56:52;101776.66;;;2.62;96.85
10806;BME280;5455;53.224;6.000;2023-04-06T01:59:33;101767.09;;;2.65;96.77
10806;BME280;5455;53.224;6.000;2023-04-06T02:02:06;101761.66;;;2.65;96.68
10806;BME280;5455;53.224;6.000;2023-04-06T02:04:34;101754.28;;;2.65;96.61
10806;BME280;5455;53.224;6.000;2023-04-06T02:07:08;101768.16;;;2.69;96.49
10806;BME280;5455;53.224;6.000;2023-04-06T02:09:36;101765.19;;;2.65;96.41
10806;BME280;5455;53.224;6.000;2023-04-06T02:12:07;101756.78;;;2.62;96.53
10806;BME280;5455;53.224;6.000;2023-04-06T02:14:34;101755.44;;;2.59;97.06
10806;BME280;5455;53.224;6.000;2023-04-06T02:17:02;101748.66;;;2.57;97.50
10806;BME280;5455;53.224;6.000;2023-04-06T02:19:29;101745.41;;;2.55;97.85
10806;BME280;5455;53.224;6.000;2023-04-06T02:21:56;101751.63;;;2.60;98.39
10806;BME280;5455;53.224;6.000;2023-04-06T02:24:23;101749.16;;;2.59;98.03
10806;BME280;5455;53.224;6.000;2023-04-06T02:26:50;101746.75;;;2.57;98.28
10806;BME280;5455;53.224;6.000;2023-04-06T02:29:18;101749.22;;;2.54;98.50
10806;BME280;5455;53.224;6.000;2023-04-06T02:31:47;101749.25;;;2.49;98.37
10806;BME280;5455;53.224;6.000;2023-04-06T02:34:14;101743.84;;;2.44;98.54
10806;BME280;5455;53.224;6.000;2023-04-06T02:36:48;101747.13;;;2.41;99.12
10806;BME280;5455;53.224;6.000;2023-04-06T02:39:15;101745.50;;;2.40;98.93
10806;BME280;5455;53.224;6.000;2023-04-06T02:41:42;101735.72;;;2.39;98.52
10806;BME280;5455;53.224;6.000;2023-04-06T02:44:11;101735.72;;;2.39;98.56
10806;BME280;5455;53.224;6.000;2023-04-06T02:46:42;101739.00;;;2.36;98.26
10806;BME280;5455;53.224;6.000;2023-04-06T02:49:09;101733.56;;;2.36;98.52
10806;BME280;5455;53.224;6.000;2023-04-06T02:51:36;101732.19;;;2.38;98.70
10806;BME280;5455;53.224;6.000;2023-04-06T02:54:16;101729.75;;;2.37;98.79
10806;BME280;5455;53.224;6.000;2023-04-06T02:56:44;101718.88;;;2.37;98.71
10806;BME280;5455;53.224;6.000;2023-04-06T02:59:11;101720.25;;;2.34;98.86
10806;BME280;5455;53.224;6.000;2023-04-06T03:01:43;101719.69;;;2.32;99.36
10806;BME280;5455;53.224;6.000;2023-04-06T03:04:10;101716.97;;;2.32;99.85
10806;BME280;5455;53.224;6.000;2023-04-06T03:06:38;101718.63;;;2.33;100.00
10806;BME280;5455;53.224;6.000;2023-04-06T03:09:15;101724.31;;;2.32;100.00
10806;BME280;5455;53.224;6.000;2023-04-06T03:11:43;101719.19;;;2.30;100.00
10806;BME280;5455;53.224;6.000;2023-04-06T03:14:11;101721.66;;;2.27;100.00
10806;BME280;5455;53.224;6.000;2023-04-06T03:16:38;101719.50;;;2.23;100.00
10806;BME280;5455;53.224;6.000;2023-04-06T03:19:05;101720.56;;;2.22;100.00
10806;BME280;5455;53.224;6.000;2023-04-06T03:21:34;101717.63;;;2.19;100.00
10806;BME280;5455;53.224;6.000;2023-04-06T03:24:09;101718.97;;;2.16;100.00
10806;BME280;5455;53.224;6.000;2023-04-06T03:26:36;101721.47;;;2.13;100.00
10806;BME280;5455;53.224;6.000;2023-04-06T03:29:05;101710.59;;;2.13;100.00
10806;BME280;5455;53.224;6.000;2023-04-06T03:31:34;101708.69;;;2.08;100.00
10806;BME280;5455;53.224;6.000;2023-04-06T03:34:07;101709.22;;;2.10;100.00
10806;BME280;5455;53.224;6.000;2023-04-06T03:36:35;101703.78;;;2.10;100.00
10806;BME280;5455;53.224;6.000;2023-04-06T03:39:03;101707.06;;;2.07;100.00
10806;BME280;5455;53.224;6.000;2023-04-06T03:41:33;101698.91;;;2.07;100.00
10806;BME280;5455;53.224;6.000;2023-04-06T03:44:07;101705.47;;;2.06;100.00
10806;BME280;5455;53.224;6.000;2023-04-06T03:46:34;101699.47;;;2.04;100.00
10806;BME280;5455;53.224;6.000;2023-04-06T03:49:01;101695.69;;;2.00;100.00
10806;BME280;5455;53.224;6.000;2023-04-06T03:51:29;101693.00;;;1.95;100.00
10806;BME280;5455;53.224;6.000;2023-04-06T03:53:56;101698.44;;;1.95;100.00
10806;BME280;5455;53.224;6.000;2023-04-06T03:56:25;101690.03;;;1.92;100.00
10806;BME280;5455;53.224;6.000;2023-04-06T03:58:53;101687.84;;;1.94;100.00
10806;BME280;5455;53.224;6.000;2023-04-06T04:01:20;101688.38;;;1.96;100.00
10806;BME280;5455;53.224;6.000;2023-04-06T04:03:47;101686.75;;;1.95;100.00
10806;BME280;5455;53.224;6.000;2023-04-06T04:06:17;101689.75;;;1.93;100.00
10806;BME280;5455;53.224;6.000;2023-04-06T04:08:45;101689.75;;;1.93;100.00
10806;BME280;5455;53.224;6.000;2023-04-06T04:11:12;101694.38;;;1.93;100.00
10806;BME280;5455;53.224;6.000;2023-04-06T04:13:39;101693.59;;;1.92;100.00
10806;BME280;5455;53.224;6.000;2023-04-06T04:16:07;101691.09;;;1.96;100.00
10806;BME280;5455;53.224;6.000;2023-04-06T04:18:35;101684.88;;;1.90;100.00
10806;BME280;5455;53.224;6.000;2023-04-06T04:21:05;101693.88;;;1.86;100.00
10806;BME280;5455;53.224;6.000;2023-04-06T04:23:32;101696.88;;;1.84;100.00
10806;BME280;5455;53.224;6.000;2023-04-06T04:26:02;101691.44;;;1.84;100.00
10806;BME280;5455;53.224;6.000;2023-04-06T04:28:29;101687.91;;;1.84;100.00
10806;BME280;5455;53.224;6.000;2023-04-06T04:30:57;101689.81;;;1.83;100.00
10806;BME280;5455;53.224;6.000;2023-04-06T04:33:24;101683.00;;;1.81;100.00
10806;BME280;5455;53.224;6.000;2023-04-06T04:35:55;101681.94;;;1.82;100.00
10806;BME280;5455;53.224;6.000;2023-04-06T04:38:26;101676.22;;;1.83;100.00
10806;BME280;5455;53.224;6.000;2023-04-06T04:40:56;101678.94;;;1.83;100.00
10806;BME280;5455;53.224;6.000;2023-04-06T04:43:24;101677.31;;;1.82;100.00
10806;BME280;5455;53.224;6.000;2023-04-06T04:45:51;101676.78;;;1.80;100.00
10806;BME280;5455;53.224;6.000;2023-04-06T04:48:31;101678.13;;;1.78;100.00
10806;BME280;5455;53.224;6.000;2023-04-06T04:51:01;101671.34;;;1.75;100.00
10806;BME280;5455;53.224;6.000;2023-04-06T04:53:39;101663.50;;;1.74;100.00
10806;BME280;5455;53.224;6.000;2023-04-06T04:56:17;101662.94;;;1.77;100.00
10806;BME280;5455;53.224;6.000;2023-04-06T04:58:46;101665.09;;;1.80;100.00
10806;BME280;5455;53.224;6.000;2023-04-06T05:01:14;101667.25;;;1.78;100.00
10806;BME280;5455;53.224;6.000;2023-04-06T05:03:43;101666.19;;;1.79;100.00
10806;BME280;5455;53.224;6.000;2023-04-06T05:06:14;101662.09;;;1.81;100.00
10806;BME280;5455;53.224;6.000;2023-04-06T05:08:42;101663.72;;;1.82;100.00
10806;BME280;5455;53.224;6.000;2023-04-06T05:11:10;101663.97;;;1.86;100.00
10806;BME280;5455;53.224;6.000;2023-04-06T05:13:42;101661.78;;;1.88;100.00
10806;BME280;5455;53.224;6.000;2023-04-06T05:16:20;101660.97;;;1.92;100.00
10806;BME280;5455;53.224;6.000;2023-04-06T05:18:49;101658.72;;;1.99;100.00
10806;BME280;5455;53.224;6.000;2023-04-06T05:21:16;101659.78;;;2.03;100.00
10806;BME280;5455;53.224;6.000;2023-04-06T05:23:55;101657.31;;;2.07;100.00
10806;BME280;5455;53.224;6.000;2023-04-06T05:26:23;101658.91;;;2.08;100.00
10806;BME280;5455;53.224;6.000;2023-04-06T05:28:54;101656.47;;;2.11;100.00
10806;BME280;5455;53.224;6.000;2023-04-06T05:31:23;101656.72;;;2.15;100.00
10806;BME280;5455;53.224;6.000;2023-04-06T05:33:50;101649.63;;;2.19;100.00
10806;BME280;5455;53.224;6.000;2023-04-06T05:36:28;101646.34;;;2.22;100.00
10806;BME280;5455;53.224;6.000;2023-04-06T05:38:55;101650.38;;;2.25;100.00
10806;BME280;5455;53.224;6.000;2023-04-06T05:41:33;101650.09;;;2.26;100.00
10806;BME280;5455;53.224;6.000;2023-04-06T05:44:00;101644.91;;;2.30;100.00
10806;BME280;5455;53.224;6.000;2023-04-06T05:46:29;101645.16;;;2.33;100.00
10806;BME280;5455;53.224;6.000;2023-04-06T05:48:58;101644.28;;;2.38;100.00
10806;BME280;5455;53.224;6.000;2023-04-06T05:51:29;101646.16;;;2.42;100.00
10806;BME280;5455;53.224;6.000;2023-04-06T05:53:57;101650.22;;;2.45;100.00
10806;BME280;5455;53.224;6.000;2023-04-06T05:56:25;101648.56;;;2.49;100.00
10806;BME280;5455;53.224;6.000;2023-04-06T05:58:53;101649.59;;;2.53;100.00
10806;BME280;5455;53.224;6.000;2023-04-06T06:01:26;101653.38;;;2.57;100.00
10806;BME280;5455;53.224;6.000;2023-04-06T06:03:53;101637.81;;;2.62;100.00
10806;BME280;5455;53.224;6.000;2023-04-06T06:06:24;101641.03;;;2.69;100.00
10806;BME280;5455;53.224;6.000;2023-04-06T06:09:05;101636.34;;;2.75;100.00
10806;BME280;5455;53.224;6.000;2023-04-06T06:11:38;101642.78;;;2.84;100.00
10806;BME280;5455;53.224;6.000;2023-04-06T06:14:06;101641.56;;;2.95;100.00
10806;BME280;5455;53.224;6.000;2023-04-06T06:16:37;101632.41;;;3.10;100.00
10806;BME280;5455;53.224;6.000;2023-04-06T06:19:07;101634.16;;;3.24;100.00
10806;BME280;5455;53.224;6.000;2023-04-06T06:21:36;101639.94;;;3.42;100.00
10806;BME280;5455;53.224;6.000;2023-04-06T06:24:05;101640.34;;;3.54;100.00
10806;BME280;5455;53.224;6.000;2023-04-06T06:26:33;101640.50;;;3.62;100.00
10806;BME280;5455;53.224;6.000;2023-04-06T06:29:06;101644.63;;;3.60;100.00
10806;BME280;5455;53.224;6.000;2023-04-06T06:31:37;101639.75;;;3.57;100.00
10806;BME280;5455;53.224;6.000;2023-04-06T06:34:04;101635.47;;;3.51;100.00
10806;BME280;5455;53.224;6.000;2023-04-06T06:36:34;101640.63;;;3.52;100.00
10806;BME280;5455;53.224;6.000;2023-04-06T06:39:05;101634.00;;;3.58;100.00
10806;BME280;5455;53.224;6.000;2023-04-06T06:41:33;101637.66;;;3.72;100.00
10806;BME280;5455;53.224;6.000;2023-04-06T06:44:00;101646.94;;;3.90;100.00
10806;BME280;5455;53.224;6.000;2023-04-06T06:46:28;101643.22;;;4.18;100.00
10806;BME280;5455;53.224;6.000;2023-04-06T06:48:57;101654.56;;;4.44;100.00
10806;BME280;5455;53.224;6.000;2023-04-06T06:51:24;101650.16;;;4.62;98.50
10806;BME280;5455;53.224;6.000;2023-04-06T06:53:52;101648.66;;;4.69;96.88
10806;BME280;5455;53.224;6.000;2023-04-06T06:56:19;101638.09;;;4.63;95.92
10806;BME280;5455;53.224;6.000;2023-04-06T06:58:46;101636.28;;;4.58;96.20
10806;BME280;5455;53.224;6.000;2023-04-06T07:01:14;101639.13;;;4.53;96.39
10806;BME280;5455;53.224;6.000;2023-04-06T07:03:42;101634.75;;;4.52;96.16
10806;BME280;5455;53.224;6.000;2023-04-06T07:06:09;101626.47;;;4.57;95.43
10806;BME280;5455;53.224;6.000;2023-04-06T07:08:39;101631.16;;;4.70;94.95
10806;BME280;5455;53.224;6.000;2023-04-06T07:11:06;101628.97;;;4.86;94.30
10806;BME280;5455;53.224;6.000;2023-04-06T07:13:34;101628.91;;;5.05;93.07
10806;BME280;5455;53.224;6.000;2023-04-06T07:16:01;101624.44;;;5.22;91.70
10806;BME280;5455;53.224;6.000;2023-04-06T07:18:28;101624.03;;;5.42;91.08
10806;BME280;5455;53.224;6.000;2023-04-06T07:20:58;101618.09;;;5.63;89.80
10806;BME280;5455;53.224;6.000;2023-04-06T07:23:25;101619.00;;;5.85;88.61
10806;BME280;5455;53.224;6.000;2023-04-06T07:25:52;101612.72;;;6.07;86.45
10806;BME280;5455;53.224;6.000;2023-04-06T07:28:20;101620.16;;;6.29;85.24
10806;BME280;5455;53.224;6.000;2023-04-06T07:30:47;101617.28;;;6.56;83.35
10806;BME280;5455;53.224;6.000;2023-04-06T07:33:15;101612.59;;;6.79;80.33
10806;BME280;5455;53.224;6.000;2023-04-06T07:35:42;101611.59;;;7.05;78.85
10806;BME280;5455;53.224;6.000;2023-04-06T07:38:11;101607.91;;;7.27;76.80
10806;BME280;5455;53.224;6.000;2023-04-06T07:40:39;101603.47;;;7.48;74.62
10806;BME280;5455;53.224;6.000;2023-04-06T07:43:06;101613.69;;;7.73;75.22
10806;BME280;5455;53.224;6.000;2023-04-06T07:45:35;101617.09;;;7.88;70.74
10806;BME280;5455;53.224;6.000;2023-04-06T07:48:02;101615.78;;;7.94;70.78
10806;BME280;5455;53.224;6.000;2023-04-06T07:50:31;101613.22;;;7.89;69.22
10806;BME280;5455;53.224;6.000;2023-04-06T07:52:58;101607.91;;;7.84;69.50
10806;BME280;5455;53.224;6.000;2023-04-06T07:55:27;101607.72;;;7.80;69.85
10806;BME280;5455;53.224;6.000;2023-04-06T07:57:53;101600.44;;;7.75;70.08
10806;BME280;5455;53.224;6.000;2023-04-06T08:00:21;101610.00;;;7.87;70.19
10806;BME280;5455;53.224;6.000;2023-04-06T08:02:49;101609.34;;;8.07;69.98
10806;BME280;5455;53.224;6.000;2023-04-06T08:05:19;101604.66;;;8.33;69.60
10806;BME280;5455;53.224;6.000;2023-04-06T08:07:46;101599.78;;;8.56;68.36
10806;BME280;5455;53.224;6.000;2023-04-06T08:10:13;101608.16;;;8.68;67.43
10806;BME280;5455;53.224;6.000;2023-04-06T08:12:39;101610.91;;;8.76;65.67
10806;BME280;5455;53.224;6.000;2023-04-06T08:15:06;101607.81;;;8.69;64.74
10806;BME280;5455;53.224;6.000;2023-04-06T08:17:33;101609.63;;;8.74;64.41
10806;BME280;5455;53.224;6.000;2023-04-06T08:20:01;101612.59;;;8.90;63.88
10806;BME280;5455;53.224;6.000;2023-04-06T08:22:32;101609.63;;;9.12;63.45
10806;BME280;5455;53.224;6.000;2023-04-06T08:24:59;101609.13;;;9.18;62.79
10806;BME280;5455;53.224;6.000;2023-04-06T08:27:26;101605.31;;;9.31;63.20
10806;BME280;5455;53.224;6.000;2023-04-06T08:29:53;101610.66;;;9.36;63.41
10806;BME280;5455;53.224;6.000;2023-04-06T08:32:20;101605.22;;;9.49;63.46
10806;BME280;5455;53.224;6.000;2023-04-06T08:34:47;101603.16;;;9.66;63.20
10806;BME280;5455;53.224;6.000;2023-04-06T08:37:14;101599.00;;;9.81;62.18
10806;BME280;5455;53.224;6.000;2023-04-06T08:39:41;101600.88;;;9.89;61.56
10806;BME280;5455;53.224;6.000;2023-04-06T08:42:12;101601.44;;;10.03;62.04
10806;BME280;5455;53.224;6.000;2023-04-06T08:44:43;101596.41;;;10.05;61.21
10806;BME280;5455;53.224;6.000;2023-04-06T08:47:11;101593.28;;;10.07;60.70
10806;BME280;5455;53.224;6.000;2023-04-06T08:49:38;101591.34;;;10.07;60.27
10806;BME280;5455;53.224;6.000;2023-04-06T08:52:06;101590.66;;;10.10;60.06
10806;BME280;5455;53.224;6.000;2023-04-06T08:54:34;101579.06;;;10.25;59.47
10806;BME280;5455;53.224;6.000;2023-04-06T08:57:02;101579.22;;;10.41;60.22
10806;BME280;5455;53.224;6.000;2023-04-06T08:59:30;101578.31;;;10.49;58.96
10806;BME280;5455;53.224;6.000;2023-04-06T09:01:57;101581.25;;;10.32;57.85
10806;BME280;5455;53.224;6.000;2023-04-06T09:04:26;101580.72;;;10.38;58.50
10806;BME280;5455;53.224;6.000;2023-04-06T09:06:53;101581.44;;;10.47;58.01
10806;BME280;5455;53.224;6.000;2023-04-06T09:09:21;101578.31;;;10.49;57.77
10806;BME280;5455;53.224;6.000;2023-04-06T09:11:51;101570.75;;;10.58;57.01
10806;BME280;5455;53.224;6.000;2023-04-06T09:14:38;101573.66;;;10.74;56.97
10806;BME280;5455;53.224;6.000;2023-04-06T09:17:05;101565.41;;;10.86;56.65
10806;BME280;5455;53.224;6.000;2023-04-06T09:19:32;101573.81;;;11.01;56.25
10806;BME280;5455;53.224;6.000;2023-04-06T09:22:06;101566.56;;;11.21;57.35
10806;BME280;5455;53.224;6.000;2023-04-06T09:24:49;101572.66;;;11.39;55.74
10806;BME280;5455;53.224;6.000;2023-04-06T09:27:16;101563.22;;;11.52;54.67
10806;BME280;5455;53.224;6.000;2023-04-06T09:29:44;101558.91;;;11.67;55.03
10806;BME280;5455;53.224;6.000;2023-04-06T09:32:11;101566.97;;;11.72;53.08
10806;BME280;5455;53.224;6.000;2023-04-06T09:34:38;101565.59;;;11.78;54.11
10806;BME280;5455;53.224;6.000;2023-04-06T09:37:18;101565.59;;;11.66;51.90
10806;BME280;5455;53.224;6.000;2023-04-06T09:39:46;101560.81;;;11.50;51.99
10806;BME280;5455;53.224;6.000;2023-04-06T09:42:24;101561.03;;;11.45;52.51
10806;BME280;5455;53.224;6.000;2023-04-06T09:44:52;101555.84;;;11.56;52.13
10806;BME280;5455;53.224;6.000;2023-04-06T09:47:19;101546.31;;;11.53;52.29
10806;BME280;5455;53.224;6.000;2023-04-06T09:49:48;101552.72;;;11.70;52.20
10806;BME280;5455;53.224;6.000;2023-04-06T09:52:17;101539.47;;;11.75;52.40
10806;BME280;5455;53.224;6.000;2023-04-06T09:54:50;101546.41;;;11.97;53.29
10806;BME280;5455;53.224;6.000;2023-04-06T09:57:29;101552.41;;;11.99;51.30
10806;BME280;5455;53.224;6.000;2023-04-06T10:00:06;101542.25;;;12.03;52.29
10806;BME280;5455;53.224;6.000;2023-04-06T10:07:50;101533.78;;;12.39;51.60
10806;BME280;5455;53.224;6.000;2023-04-06T10:10:28;101537.53;;;12.47;49.29
10806;BME280;5455;53.224;6.000;2023-04-06T10:12:56;101535.84;;;12.42;49.54
10806;BME280;5455;53.224;6.000;2023-04-06T10:15:23;101539.78;;;12.57;50.65
10806;BME280;5455;53.224;6.000;2023-04-06T10:17:51;101534.16;;;12.53;49.39
10806;BME280;5455;53.224;6.000;2023-04-06T10:20:29;101528.38;;;12.58;49.62
10806;BME280;5455;53.224;6.000;2023-04-06T10:23:27;101530.06;;;12.63;49.55
10806;BME280;5455;53.224;6.000;2023-04-06T10:25:58;101527.47;;;12.70;49.90
10806;BME280;5455;53.224;6.000;2023-04-06T10:28:30;101532.22;;;12.85;49.16
10806;BME280;5455;53.224;6.000;2023-04-06T10:30:59;101535.88;;;12.74;48.69
10806;BME280;5455;53.224;6.000;2023-04-06T10:33:27;101533.56;;;12.76;48.74
10806;BME280;5455;53.224;6.000;2023-04-06T10:35:56;101540.41;;;12.66;48.34
10806;BME280;5455;53.224;6.000;2023-04-06T10:38:34;101533.66;;;12.79;48.37
10806;BME280;5455;53.224;6.000;2023-04-06T10:41:07;101531.22;;;12.93;49.12
10806;BME280;5455;53.224;6.000;2023-04-06T10:43:40;101519.34;;;12.93;48.33
10806;BME280;5455;53.224;6.000;2023-04-06T10:46:10;101532.41;;;12.77;47.52
10806;BME280;5455;53.224;6.000;2023-04-06T10:48:42;101530.78;;;12.76;47.85
10806;BME280;5455;53.224;6.000;2023-04-06T10:51:14;101530.16;;;12.82;48.01
10806;BME280;5455;53.224;6.000;2023-04-06T10:53:46;101522.19;;;12.96;48.34
10806;BME280;5455;53.224;6.000;2023-04-06T10:56:16;101525.94;;;13.04;47.16
10806;BME280;5455;53.224;6.000;2023-04-06T10:58:47;101522.81;;;13.05;47.13
10806;BME280;5455;53.224;6.000;2023-04-06T11:01:16;101531.69;;;13.11;47.20
10806;BME280;5455;53.224;6.000;2023-04-06T11:03:44;101527.28;;;13.10;46.80
10806;BME280;5455;53.224;6.000;2023-04-06T11:06:18;101526.56;;;13.29;46.99
10806;BME280;5455;53.224;6.000;2023-04-06T11:08:46;101524.84;;;13.59;46.94
10806;BME280;5455;53.224;6.000;2023-04-06T11:11:15;101527.59;;;13.74;47.35
10806;BME280;5455;53.224;6.000;2023-04-06T11:13:49;101519.81;;;13.64;46.21
10806;BME280;5455;53.224;6.000;2023-04-06T11:21:30;101517.94;;;13.68;46.64
10806;BME280;5455;53.224;6.000;2023-04-06T11:24:12;101508.00;;;13.67;46.54
10806;BME280;5455;53.224;6.000;2023-04-06T11:26:50;101506.34;;;13.63;46.19
10806;BME280;5455;53.224;6.000;2023-04-06T11:31:53;101511.47;;;13.99;46.50
10806;BME280;5455;53.224;6.000;2023-04-06T11:34:22;101506.03;;;14.25;46.50
10806;BME280;5455;53.224;6.000;2023-04-06T11:37:01;101515.66;;;14.12;45.57
10806;BME280;5455;53.224;6.000;2023-04-06T11:39:39;101513.44;;;13.99;46.05
10806;BME280;5455;53.224;6.000;2023-04-06T11:42:07;101514.25;;;13.99;45.41
10806;BME280;5455;53.224;6.000;2023-04-06T11:44:42;101507.66;;;13.88;46.11
10806;BME280;5455;53.224;6.000;2023-04-06T11:47:12;101502.91;;;13.89;45.86
10806;BME280;5455;53.224;6.000;2023-04-06T11:49:43;101501.31;;;13.68;47.20
10806;BME280;5455;53.224;6.000;2023-04-06T11:54:47;101503.13;;;13.80;47.08
10806;BME280;5455;53.224;6.000;2023-04-06T11:57:15;101493.34;;;13.48;47.14
10806;BME280;5455;53.224;6.000;2023-04-06T11:59:42;101495.84;;;13.53;47.66
10806;BME280;5455;53.224;6.000;2023-04-06T12:02:09;101503.13;;;13.80;47.80
10806;BME280;5455;53.224;6.000;2023-04-06T12:04:37;101508.97;;;13.75;47.70
10806;BME280;5455;53.224;6.000;2023-04-06T12:07:04;101507.16;;;13.82;47.23
10806;BME280;5455;53.224;6.000;2023-04-06T12:09:32;101499.69;;;13.67;47.33
10806;BME280;5455;53.224;6.000;2023-04-06T12:12:01;101501.53;;;13.79;48.06
10806;BME280;5455;53.224;6.000;2023-04-06T12:14:29;101505.97;;;13.64;46.63
10806;BME280;5455;53.224;6.000;2023-04-06T12:16:57;101506.84;;;13.49;47.36
10806;BME280;5455;53.224;6.000;2023-04-06T12:19:24;101500.06;;;13.47;48.74
10806;BME280;5455;53.224;6.000;2023-04-06T12:21:56;101499.28;;;13.65;48.55
10806;BME280;5455;53.224;6.000;2023-04-06T12:24:24;101497.59;;;13.80;49.08
10806;BME280;5455;53.224;6.000;2023-04-06T12:26:51;101487.88;;;14.09;48.45
10806;BME280;5455;53.224;6.000;2023-04-06T12:29:32;101492.91;;;14.03;48.16
10806;BME280;5455;53.224;6.000;2023-04-06T12:31:59;101490.50;;;14.02;48.32
10806;BME280;5455;53.224;6.000;2023-04-06T12:34:28;101481.38;;;14.01;48.79
10806;BME280;5455;53.224;6.000;2023-04-06T12:36:55;101476.34;;;14.07;48.44
10806;BME280;5455;53.224;6.000;2023-04-06T12:39:23;101480.66;;;14.04;49.36
10806;BME280;5455;53.224;6.000;2023-04-06T12:41:50;101480.00;;;14.11;49.71
10806;BME280;5455;53.224;6.000;2023-04-06T12:44:17;101480.25;;;14.25;49.69
10806;BME280;5455;53.224;6.000;2023-04-06T12:46:44;101487.19;;;14.34;49.01
10806;BME280;5455;53.224;6.000;2023-04-06T12:49:12;101489.22;;;14.38;49.17
10806;BME280;5455;53.224;6.000;2023-04-06T12:51:39;101480.34;;;14.09;48.72
10806;BME280;5455;53.224;6.000;2023-04-06T12:54:06;101486.66;;;13.68;50.02
10806;BME280;5455;53.224;6.000;2023-04-06T12:56:33;101469.22;;;13.48;51.21
10806;BME280;5455;53.224;6.000;2023-04-06T12:59:00;101469.31;;;13.52;52.19
10806;BME280;5455;53.224;6.000;2023-04-06T13:01:28;101473.09;;;13.63;52.80
10806;BME280;5455;53.224;6.000;2023-04-06T13:03:56;101469.13;;;13.64;53.61
10806;BME280;5455;53.224;6.000;2023-04-06T13:06:24;101478.78;;;13.70;55.18
10806;BME280;5455;53.224;6.000;2023-04-06T13:08:54;101474.38;;;14.07;55.77
10806;BME280;5455;53.224;6.000;2023-04-06T13:11:21;101462.53;;;14.10;56.62
10806;BME280;5455;53.224;6.000;2023-04-06T13:13:53;101466.44;;;14.28;59.28
10806;BME280;5455;53.224;6.000;2023-04-06T13:16:20;101465.56;;;14.24;59.54
10806;BME280;5455;53.224;6.000;2023-04-06T13:18:47;101468.06;;;13.88;61.04
10806;BME280;5455;53.224;6.000;2023-04-06T13:21:15;101466.53;;;13.71;62.53
10806;BME280;5455;53.224;6.000;2023-04-06T13:23:43;101468.72;;;13.81;62.59
10806;BME280;5455;53.224;6.000;2023-04-06T13:26:11;101458.72;;;13.38;63.40
10806;BME280;5455;53.224;6.000;2023-04-06T13:28:40;101463.94;;;13.24;66.32
10806;BME280;5455;53.224;6.000;2023-04-06T13:31:08;101456.16;;;13.30;67.99
10806;BME280;5455;53.224;6.000;2023-04-06T13:33:36;101458.53;;;12.96;67.59